Gustavo Colombo

Olheiro - River Plate
3 Dez 2028
Domingo
Processo

Personalidade

Adaptabilidade (16) Ambição (6) Controvérsia (11) Lealdade (18) Pressão (18) Profissionalismo (18) Espírito Esportivo (19) Temperamento (8)

Perfil

Estilo de Treinamento Democrático
Licença Continental B
Determinação 7
Gestão de Pessoas 11
Motivação 11
Disciplina 14
Satisfação no Trabalho
100%
Fadiga
0%
Função Olheiro
Salário 98.9K p/s
Contrato 14.03.2030

Desempenho

Comportamento Bom
Eficácia do Treinamento
49%
Desenvolvimento do Jogador
50%
Prevenção de Lesões
40%
Implementação Tática
30%

Eventos Recentes

Avaliou um jogador agora
Participou de uma reunião de recrutamento agora
Recomendou um alvo de transferência agora
Recomendou um alvo de transferência agora
Avaliou um jogador agora
Avaliou um jogador 7d atrás
Avaliou um jogador 7d atrás
Avaliou um jogador 7d atrás

Monitorando agora

257
Jogador Clube Status Habilidade Confiança Observado Última observação Último voto
Lautaro Giaccone Argentinos Juniors Relatório pronto 124 / 114 90% 1 02.12.2028 -
Hernán Zuliani Defensa y Justicia Negociando 121 / 129 90% 1 01.12.2028 -
William Osula Wrexham Ativo 142 / 130 40% 1 01.12.2028 -
Rodrigo Muniz Fulham Ativo 151 / 155 40% 1 01.12.2028 -
Fer Niño Elche Ativo 139 / 144 40% 1 01.12.2028 -
David Carmo Olympiacos Ativo 142 / 138 40% 8 29.11.2028 -
Mario García Racing Santander Ativo 135 / 120 40% 3 29.11.2028 -
Jonathan De Irastorza Independiente Ativo 131 / 123 40% 6 29.11.2028 -
Quilindschy Hartman Burnley Ativo 152 / 156 40% 10 27.11.2028 -
Lewis Miley Newcastle United Ativo 157 / 147 40% 2 27.11.2028 -
Cristian Gutiérrez Las Palmas Ativo 135 / 139 40% 3 27.11.2028 -
Jayden Bogle Leeds United Ativo 148 / 135 40% 4 26.11.2028 -
Boubacar Kamara Aston Villa Ativo 169 / 167 40% 13 26.11.2028 -
Micky van de Ven Tottenham Ativo 164 / 167 40% 4 26.11.2028 -
Amadou Onana Aston Villa Ativo 161 / 172 40% 8 25.11.2028 -
Ryan Sessegnon Fulham Ativo 153 / 140 40% 2 25.11.2028 -
Felipe Peña Biafore Lanús Ativo 130 / 136 40% 2 25.11.2028 -
André Wolverhampton Ativo 159 / 162 40% 7 23.11.2028 -
Ramón Terrats Getafe Ativo 151 / 153 40% 5 23.11.2028 -
Lamare Bogarde Reading Ativo 143 / 140 40% 1 23.11.2028 -
Juanlu Bournemouth Ativo 160 / 153 40% 4 22.11.2028 -
Iván Morante Girona Ativo 136 / 126 40% 5 22.11.2028 -
Adam Wharton Crystal Palace Ativo 162 / 167 40% 9 21.11.2028 -
Manu Koné AS Roma Ativo 174 / 157 40% 8 21.11.2028 -
Leny Yoro Preston Ativo 154 / 160 40% 1 21.11.2028 -
Ousmane Diomande Nottingham Forest Ativo 165 / 154 40% 9 19.11.2028 -
Tino Livramento Newcastle United Ativo 168 / 167 40% 15 19.11.2028 -
Fredrik Sjøvold Bodo/Glimt Ativo 142 / 135 40% 2 19.11.2028 -
Cristhian Mosquera Stoke City Ativo 159 / 149 40% 3 16.11.2028 -
Malick Thiaw Ipswich Town Ativo 164 / 154 40% 2 16.11.2028 -
Óscar Mingueza Crystal Palace Ativo 155 / 161 40% 10 15.11.2028 -
Johan Manzambi Millwall Ativo 149 / 158 40% 2 15.11.2028 -
Santiago González Tigre Ativo 132 / 131 40% 3 12.11.2028 -
Iván Martín Racing Santander Ativo 152 / 148 40% 4 12.11.2028 -
Pedro Porro Tottenham Ativo 157 / 170 40% 6 10.11.2028 -
Riku Yamane Yokohama F. Marinos Ativo 137 / 137 40% 6 10.11.2028 -
Rico Lewis West Bromwich Albion Ativo 161 / 150 40% 4 09.11.2028 -
Carlos Baleba Norwich City Ativo 160 / 166 40% 1 08.11.2028 -
Unai Hernández Al-Ittihad Ativo 134 / 133 40% 3 06.11.2028 -
Alex Scott Bournemouth Ativo 161 / 147 40% 5 03.11.2028 -
John Chetauya Elche Ativo 135 / 134 40% 2 03.11.2028 -
Andrey Santos Bolton Wanderers Ativo 155 / 149 40% 4 02.11.2028 -
Sander Berge Derby County Ativo 154 / 139 40% 1 02.11.2028 -
Michael Kayode Brentford Ativo 157 / 168 40% 3 30.10.2028 -
Matteo Prati Cagliari Ativo 144 / 138 40% 3 30.10.2028 -
Matteo Ruggeri Middlesbrough Ativo 158 / 146 40% 3 28.10.2028 -
Kevin Lomónaco Elche Ativo 149 / 148 40% 3 27.10.2028 -
Mats Wieffer Brighton Ativo 153 / 167 40% 4 25.10.2028 -
Marc Casadó Barcelona Ativo 154 / 158 40% 3 25.10.2028 -
Adrià Altimira Deportivo La Coruña Ativo 142 / 133 40% 4 24.10.2028 -
Unai Vencedor Villarreal Ativo 141 / 130 40% 2 21.10.2028 -
Tyrick Mitchell Newcastle United Ativo 159 / 161 40% 3 20.10.2028 -
Anton Stach Reading Ativo 154 / 155 40% 1 20.10.2028 -
Jan Paul van Hecke Tottenham Ativo 169 / 159 40% 5 19.10.2028 -
Sandro Tonali Tottenham Ativo 174 / 171 40% 6 15.10.2028 -
Vitaly Janelt Derby County Ativo 153 / 151 40% 2 15.10.2028 -
Archie Gray Southampton Ativo 156 / 156 40% 4 14.10.2028 -
Wesley Fofana Chelsea Ativo 172 / 179 40% 4 13.10.2028 -
Marcos López Gimnasia La Plata Ativo 133 / 122 40% 4 12.10.2028 -
Justin de Haas Valencia Ativo 136 / 136 40% 2 12.10.2028 -
Levi Colwill Chelsea Ativo 169 / 161 40% 2 11.10.2028 -
Neco Williams Wrexham Ativo 152 / 154 40% 3 10.10.2028 -
Reece James Chelsea Ativo 179 / 170 40% 7 09.10.2028 -
Yehor Yarmoliuk Brentford Ativo 155 / 153 40% 1 09.10.2028 -
Destiny Udogie Tottenham Ativo 165 / 168 40% 1 08.10.2028 -
Moisés Caicedo Chelsea Ativo 171 / 170 40% 13 05.10.2028 -
Ezri Konsa Hull City Ativo 160 / 150 40% 1 03.10.2028 -
Nathan Collins Brentford Ativo 161 / 168 40% 4 02.10.2028 -
Quinten Timber Crystal Palace Ativo 160 / 161 40% 9 30.09.2028 -
James Garner Everton Ativo 160 / 155 40% 5 28.09.2028 -
Dara O'Shea Ipswich Town Ativo 149 / 143 40% 2 27.09.2028 -
Marash Kumbulla AS Roma Ativo 143 / 141 40% 1 27.09.2028 -
Jens Cajuste Napoli Ativo 144 / 157 40% 1 20.09.2028 -
Xaver Schlager Nottingham Forest Ativo 153 / 145 40% 7 16.09.2028 -
Riccardo Calafiori Burnley Ativo 163 / 156 40% 1 13.09.2028 -
Mateu Morey Villarreal Ativo 139 / 129 40% 2 09.09.2028 -
Bradley Khune CFR Cluj Ativo 138 / 149 40% 1 08.09.2028 -
Obed Vargas Atlético Madrid Ativo 138 / 150 40% 1 07.09.2028 -
Ayyoub Bouaddi Stoke City Ativo 148 / 148 40% 1 05.09.2028 -
Sven Botman Newcastle United Ativo 169 / 154 40% 6 03.09.2028 -
Lewis Hall Newcastle United Ativo 156 / 165 40% 3 02.09.2028 -
Rubén Sánchez Elche Ativo 137 / 144 40% 1 02.09.2028 -
Eliás Montiel Borussia Dortmund Ativo 144 / 148 40% 1 01.09.2028 -
Igor Serrote Al Ain Ativo 131 / 140 40% 1 31.08.2028 -
Axel Tape Bayer Leverkusen Ativo 136 / 132 40% 1 29.08.2028 -
Andrés García Chelsea Ativo 146 / 148 40% 1 28.08.2028 -
Unai Eguíluz Athletic Bilbao Ativo 135 / 132 40% 1 27.08.2028 -
Marius Marin Al Nasr Ativo 144 / 146 40% 1 26.08.2028 -
Celías Ingenthron Platense Ativo 118 / 128 40% 1 23.08.2028 -
Àlex Sala Lecce Ativo 136 / 139 40% 1 22.08.2028 -
Adam Gnezda Čerin Al Wahda Ativo 134 / 147 40% 1 21.08.2028 -
Pervis Estupiñán AC Milan Ativo 154 / 156 40% 4 20.08.2028 -
Daniel Tonoli Modena Ativo 129 / 140 40% 1 20.08.2028 -
Adrián Bernabé Parma Ativo 146 / 147 40% 1 20.08.2028 -
Rafa Marín Pisa Ativo 159 / 159 40% 1 19.08.2028 -
Honest Ahanor Atalanta Ativo 142 / 156 40% 1 19.08.2028 -
Juan Miranda Bologna Ativo 155 / 153 40% 1 19.08.2028 -
Nuno Tavares Lazio Ativo 155 / 151 40% 6 17.08.2028 -
Devyne Rensch Virtus Entella Ativo 155 / 145 40% 1 12.08.2028 -
Matteo Gabbia Genoa Ativo 153 / 161 40% 1 12.08.2028 -
Fikayo Tomori AC Milan Ativo 159 / 142 40% 1 12.08.2028 -
Yasin Ayari Middlesbrough Ativo 153 / 163 40% 3 09.08.2028 -
Jhon Solís Birmingham Ativo 141 / 149 40% 2 09.08.2028 -
Yerson Mosquera Wolverhampton Ativo 151 / 156 40% 2 08.08.2028 -
Manuel Ugarte Leicester City Ativo 152 / 150 40% 2 08.08.2028 -
Bobby Thomas Grimsby Town Ativo 141 / 138 40% 1 08.08.2028 -
Evander Wolverhampton Ativo 149 / 146 40% 1 07.08.2028 -
Yeremy Pino Crystal Palace Ativo 157 / 155 40% 1 26.06.2028 -
Samuel Edozie Southampton Ativo 137 / 148 40% 1 26.06.2028 -
Toby Collyer West Bromwich Albion Ativo 137 / 133 40% 1 16.06.2028 -
Bafodé Diakité Plymouth Argyle Ativo 151 / 148 40% 2 15.06.2028 -
Exequiel Palacios Lazio Ativo 162 / 171 40% 3 13.06.2028 -
Welington Southampton Ativo 136 / 145 40% 3 13.06.2028 -
Eddie Nketiah Crystal Palace Ativo 147 / 152 40% 1 12.06.2028 -
Valente Pierani Estudiantes Ativo 116 / 130 86% 1 03.06.2028 Aprovar
Fábio Carvalho Brentford Ativo 147 / 148 40% 1 31.05.2028 -
James Trafford Leeds United Ativo 152 / 167 40% 10 29.05.2028 -
Mark Travers Leicester City Ativo 148 / 158 40% 4 28.05.2028 -
Lautaro Morales Lanús Ativo 136 / 133 40% 2 28.05.2028 -
Robin Roefs Sunderland Ativo 154 / 146 40% 8 27.05.2028 -
Josh Keeley Luton Town Ativo 137 / 128 40% 4 26.05.2028 -
Illan Meslier Crystal Palace Ativo 145 / 147 40% 1 26.05.2028 -
Sam Proctor Salford City Ativo 123 / 122 40% 2 25.05.2028 -
Callum Brittain Middlesbrough Ativo 138 / 139 40% 1 25.05.2028 -
Ander Astralaga Newcastle United Ativo 138 / 153 40% 5 23.05.2028 -
Max Bird Birmingham Ativo 136 / 151 40% 7 23.05.2028 -
Daniel Peretz Wolverhampton Ativo 147 / 146 40% 2 23.05.2028 -
Bart Verbruggen Liverpool Ativo 163 / 151 40% 1 23.05.2028 -
Patrick Dorgu Bristol City Ativo 149 / 153 40% 1 23.05.2028 -
Joseph Leclercq Tottenham Ativo 162 / 155 40% 5 21.05.2028 -
Federico Ravaglia Bologna Ativo 143 / 146 40% 6 21.05.2028 -
Mads Hermansen West Ham United Ativo 145 / 140 40% 3 21.05.2028 -
Zion Suzuki Aston Villa Ativo 155 / 143 40% 3 20.05.2028 -
Mile Svilar AS Roma Ativo 163 / 165 40% 16 19.05.2028 -
Franco Israel Hellas Verona Ativo 139 / 136 40% 3 18.05.2028 -
Caoimhin Kelleher Brentford Ativo 160 / 164 40% 2 18.05.2028 -
Elia Caprile Cagliari Ativo 154 / 150 40% 16 17.05.2028 -
Kostantis Tzolakis Brighton Ativo 155 / 142 40% 4 17.05.2028 -
Antonín Kinský Tottenham Ativo 154 / 159 40% 4 16.05.2028 -
Ben Nelson Leicester City Ativo 139 / 150 40% 1 16.05.2028 -
Japhet Tanganga Sheffield United Ativo 135 / 127 40% 1 16.05.2028 -
Jakub Stolarczyk Middlesbrough Ativo 150 / 136 40% 2 14.05.2028 -
Oliver Dovin Coventry City Ativo 142 / 131 40% 1 14.05.2028 -
Filip Jörgensen Chelsea Ativo 160 / 152 40% 3 13.05.2028 -
Gianluigi Donnarumma AS Roma Ativo 172 / 185 40% 7 10.05.2028 -
Harry Clarke Preston Ativo 138 / 126 40% 1 08.05.2028 -
Brandon Austin Brighton Ativo 138 / 140 40% 4 06.05.2028 -
Christos Mandas Lazio Ativo 148 / 147 40% 4 05.05.2028 -
Aaron Ramsdale Southampton Ativo 155 / 149 40% 4 05.05.2028 -
Joe Rodon Blackburn Rovers Ativo 145 / 153 40% 1 04.05.2028 -
Nordi Mukiele Sunderland Ativo 147 / 140 40% 5 03.05.2028 -
Lucas Chevalier AC Milan Ativo 162 / 169 40% 12 29.04.2028 -
Ivor Pandur Hull City Ativo 134 / 127 40% 2 26.04.2028 -
Senne Lammens Manchester United Ativo 166 / 164 40% 3 18.04.2028 -
Youri Tielemans Manchester United Ativo 164 / 160 40% 3 15.04.2028 -
Lukáš Horníček Burnley Ativo 153 / 146 40% 3 12.04.2028 -
Shea Charles Southampton Ativo 147 / 144 40% 1 04.04.2028 -
Radek Vítek Middlesbrough Ativo 152 / 157 40% 3 30.03.2028 -
Noussair Mazraoui Manchester United Ativo 159 / 169 40% 5 26.03.2028 -
Giorgi Mamardashvili Liverpool Ativo 172 / 163 40% 2 18.03.2028 -
Jonas Urbig Bayern Munich Ativo 160 / 147 40% 1 18.03.2028 -
Anatolii Trubin Arsenal Ativo 162 / 166 40% 1 16.03.2028 -
Max Johnston Derby County Ativo 138 / 142 40% 1 22.02.2028 -
Jordan Beyer Burnley Ativo 137 / 144 40% 1 21.02.2028 -
Jake O'Brien Everton Ativo 150 / 160 40% 5 20.02.2028 -
Aaron Hickey Brentford Ativo 150 / 150 40% 2 09.02.2028 -
Angeliño AS Roma Ativo 150 / 148 40% 1 13.12.2027 -
Jhonatan Candia Barracas Central Ativo 120 / 116 83% 1 01.12.2027 Aprovar
Anthony Patterson Wrexham Ativo 134 / 152 40% 1 21.11.2027 -
Edoardo Corvi Palermo Ativo 142 / 137 40% 7 29.10.2027 -
Filip Stanković Lazio Ativo 144 / 143 40% 4 27.10.2027 -
Josep Martínez Inter Ativo 142 / 141 40% 8 21.10.2027 -
Guilherme Fernandes Valencia Ativo 141 / 132 40% 1 02.10.2027 -
Justin Bijlow Atalanta Ativo 156 / 143 40% 4 30.09.2027 -
Álvaro Fernández Valencia Ativo 150 / 148 40% 2 09.08.2027 -
Bremer Juventus Ativo 166 / 157 40% 2 30.05.2027 -
Trevoh Chalobah Como Ativo 148 / 164 40% 2 29.05.2027 -
Dodo Fiorentina Ativo 155 / 151 40% 1 29.05.2027 -
Carlos Augusto Inter Ativo 152 / 150 40% 6 26.05.2027 -
Johan Felipe Vásquez Genoa Ativo 145 / 147 40% 2 26.05.2027 -
Curtis Jones Inter Ativo 162 / 153 40% 6 25.05.2027 -
Nicolò Rovella Lazio Ativo 147 / 161 40% 4 25.05.2027 -
Pierre Kalulu Juventus Ativo 162 / 162 40% 2 23.05.2027 -
Teun Koopmeiners Juventus Ativo 151 / 149 40% 2 22.05.2027 -
Khéphren Thuram Juventus Ativo 152 / 162 40% 1 22.05.2027 -
Billy Gilmour Napoli Ativo 149 / 139 40% 5 18.05.2027 -
Lucas Da Cunha Como Ativo 142 / 154 40% 4 18.05.2027 -
Kobbie Mainoo Manchester United Ativo 147 / 162 40% 1 15.05.2027 -
Oumar Solet Udinese Ativo 142 / 140 40% 2 14.05.2027 -
Alessandro Buongiorno Cagliari Ativo 162 / 169 40% 3 13.05.2027 -
Lewis Ferguson Bologna Ativo 142 / 133 40% 1 03.05.2027 -
Evan N'Dicka AS Roma Ativo 151 / 146 40% 2 02.05.2027 -
Nicolò Fagioli Fiorentina Ativo 145 / 148 40% 1 02.05.2027 -
Thierry Rendall Correia Venezia Ativo 139 / 132 40% 2 01.05.2027 -
Alessandro Bastoni Inter Ativo 169 / 157 40% 2 30.04.2027 -
Arthur Atta Fiorentina Ativo 148 / 134 40% 1 28.04.2027 -
Odilon Kossounou Atalanta Ativo 144 / 148 40% 2 23.04.2027 -
Manuel Locatelli Juventus Ativo 149 / 153 40% 4 05.04.2027 -
Diego Gómez Brighton Ativo 150 / 147 40% 2 01.04.2027 -
Matheus Nunes Manchester City Ativo 157 / 152 40% 3 27.03.2027 -
Jarrad Branthwaite Everton Ativo 156 / 149 40% 2 24.03.2027 -
Gabriel Arsenal Ativo 175 / 157 40% 3 19.03.2027 -
Matthijs de Ligt Manchester United Ativo 166 / 154 40% 1 19.03.2027 -
Ryan Gravenberch Liverpool Ativo 153 / 158 40% 2 18.03.2027 -
Joško Gvardiol Manchester City Ativo 166 / 156 40% 4 15.03.2027 -
Azor Matusiwa Ipswich Town Ativo 137 / 131 40% 1 11.03.2027 -
Martín Zubimendi Arsenal Ativo 156 / 161 40% 1 10.03.2027 -
Matty Cash Aston Villa Ativo 149 / 144 40% 2 09.03.2027 -
Alexis Mac Allister Liverpool Ativo 167 / 160 40% 2 09.03.2027 -
Antonee Robinson Fulham Ativo 146 / 134 40% 1 08.03.2027 -
Florentino Luís Ipswich Town Ativo 147 / 149 40% 3 03.03.2027 -
Miloš Kerkez Liverpool Ativo 155 / 167 40% 3 28.02.2027 -
Jeremie Frimpong Liverpool Ativo 158 / 167 40% 2 26.02.2027 -
Jacob Greaves Ipswich Town Ativo 136 / 137 40% 4 21.02.2027 -
Raoul Bellanova Atalanta Ativo 157 / 164 40% 1 20.02.2027 -
Enzo Fernández Manchester City Ativo 171 / 183 40% 2 19.02.2027 -
Marc Guéhi Manchester City Ativo 161 / 176 40% 1 18.02.2027 -
Maxence Lacroix Chelsea Ativo 147 / 136 40% 1 15.02.2027 -
Olivier Boscagli Brighton Ativo 138 / 151 40% 2 05.02.2027 -
William Saliba Arsenal Ativo 182 / 183 40% 2 05.02.2027 -
Habib Diarra Sunderland Ativo 146 / 137 40% 1 28.01.2027 -
Fabián Manchester United Ativo 161 / 165 40% 1 28.01.2027 -
Joachim Andersen Fulham Ativo 152 / 155 40% 2 15.01.2027 -
Roméo Lavia Chelsea Ativo 151 / 158 40% 2 10.01.2027 -
Kyle Walker-Peters West Ham United Ativo 139 / 143 40% 1 09.01.2027 -
Yacine Adli Al-Shabab Ativo 141 / 151 40% 1 05.01.2027 -
Gianluca Mancini AS Roma Ativo 156 / 164 40% 1 01.01.2027 -
Franck Kessié Atalanta Ativo 142 / 161 40% 3 30.11.2026 -
Malcom Al Jazira Ativo 145 / 154 40% 4 29.11.2026 -
Oscar Al-Taawoun Ativo 150 / 144 40% 2 29.11.2026 -
Mathías Olivera Napoli Ativo 152 / 131 40% 2 29.11.2026 -
Takehiro Tomiyasu Crystal Palace Ativo 139 / 141 40% 3 28.11.2026 -
Nahuel Molina AS Roma Ativo 139 / 134 40% 1 17.11.2026 -
Steven Bergwijn Al-Ittihad Ativo 150 / 154 40% 2 14.11.2026 -
Kenneth Taylor Lazio Ativo 140 / 161 40% 2 14.11.2026 -
Diogo Dalot Manchester United Ativo 153 / 139 40% 1 23.10.2026 -
Ibrahim Sangaré Nottingham Forest Ativo 149 / 152 40% 3 18.10.2026 -
Sepp van den Berg Brentford Ativo 149 / 159 40% 1 18.10.2026 -
António Silva Bournemouth Ativo 139 / 141 40% 1 18.10.2026 -
Pau Torres Aston Villa Ativo 147 / 159 40% 1 17.10.2026 -
Antoni Milambo Brentford Ativo 137 / 134 40% 1 14.10.2026 -
Ilyas Ansah Hull City Ativo 132 / 143 40% 1 14.10.2026 -
Roger Ibañez Al-Ahli Ativo 147 / 146 40% 1 06.10.2026 -
Sam Beukema Napoli Ativo 150 / 158 40% 1 05.10.2026 -
Deniz Ertaş Konyaspor Ativo 126 / 124 40% 1 04.10.2026 -
Dmytro Riznyk Racing Genk Ativo 132 / 154 40% 2 02.10.2026 -
Galeno Al-Ahli Ativo 140 / 136 40% 2 01.10.2026 -
Joaquin Seys Club Brugge Ativo 130 / 116 40% 1 26.09.2026 -
Mattéo Guendouzi Fenerbahce Ativo 149 / 155 40% 3 17.09.2026 -
James Bacca La Equidad Ativo 127 / 125 40% 1 11.09.2026 -
Alexander Nübel Besiktas Ativo 147 / 140 40% 13 31.08.2026 -
Théo Hernández CSKA Moscow Ativo 149 / 154 40% 1 23.08.2026 -
Iván Fresneda Sporting CP Ativo 132 / 129 40% 1 15.08.2026 -
Ritsu Doan Gamba Osaka Ativo 146 / 130 40% 1 08.08.2026 -
Givairo Read Feyenoord Ativo 134 / 156 40% 1 06.08.2026 -
Kees Smit AZ Ativo 138 / 130 40% 1 06.08.2026 -
Matvey Safonov Paris Saint-Germain Ativo 158 / 149 40% 1 01.08.2026 -